sensor_id;sensor_type;location;lat;lon;timestamp;pressure;altitude;pressure_sealevel;temperature;humidity
32083;BME280;18597;48.328;7.932;2023-09-12T00:02:16;99072.78;;;17.96;100.00
32083;BME280;18597;48.328;7.932;2023-09-12T00:04:42;99073.81;;;17.95;100.00
32083;BME280;18597;48.328;7.932;2023-09-12T00:07:08;99071.66;;;17.90;100.00
32083;BME280;18597;48.328;7.932;2023-09-12T00:09:33;99068.72;;;17.85;100.00
32083;BME280;18597;48.328;7.932;2023-09-12T00:11:59;99076.25;;;17.90;100.00
32083;BME280;18597;48.328;7.932;2023-09-12T00:14:25;99072.63;;;17.83;100.00
32083;BME280;18597;48.328;7.932;2023-09-12T00:16:51;99070.31;;;17.80;100.00
32083;BME280;18597;48.328;7.932;2023-09-12T00:19:18;99068.72;;;17.85;100.00
32083;BME280;18597;48.328;7.932;2023-09-12T00:21:44;99062.50;;;17.70;100.00
32083;BME280;18597;48.328;7.932;2023-09-12T00:24:09;99062.94;;;17.88;100.00
32083;BME280;18597;48.328;7.932;2023-09-12T00:26:35;99058.75;;;17.86;100.00
32083;BME280;18597;48.328;7.932;2023-09-12T00:29:01;99054.63;;;18.11;100.00
32083;BME280;18597;48.328;7.932;2023-09-12T00:31:27;99045.19;;;18.22;100.00
32083;BME280;18597;48.328;7.932;2023-09-12T00:33:53;99044.00;;;18.31;100.00
32083;BME280;18597;48.328;7.932;2023-09-12T00:36:18;99048.94;;;18.27;100.00
32083;BME280;18597;48.328;7.932;2023-09-12T00:38:44;99055.56;;;18.46;100.00
32083;BME280;18597;48.328;7.932;2023-09-12T00:41:10;99051.44;;;18.50;100.00
32083;BME280;18597;48.328;7.932;2023-09-12T00:43:36;99054.53;;;18.47;100.00
32083;BME280;18597;48.328;7.932;2023-09-12T00:46:02;99053.72;;;18.25;100.00
32083;BME280;18597;48.328;7.932;2023-09-12T00:48:27;99048.59;;;18.09;100.00
32083;BME280;18597;48.328;7.932;2023-09-12T00:50:54;99041.44;;;18.01;100.00
32083;BME280;18597;48.328;7.932;2023-09-12T00:53:20;99045.28;;;18.35;100.00
32083;BME280;18597;48.328;7.932;2023-09-12T00:55:57;99048.28;;;18.47;100.00
32083;BME280;18597;48.328;7.932;2023-09-12T00:58:25;99043.41;;;18.36;100.00
32083;BME280;18597;48.328;7.932;2023-09-12T01:00:53;99051.84;;;18.26;100.00
32083;BME280;18597;48.328;7.932;2023-09-12T01:03:19;99050.06;;;18.12;100.00
32083;BME280;18597;48.328;7.932;2023-09-12T01:05:45;99054.28;;;18.21;100.00
32083;BME280;18597;48.328;7.932;2023-09-12T01:08:11;99053.03;;;18.17;100.00
32083;BME280;18597;48.328;7.932;2023-09-12T01:10:37;99048.81;;;18.36;100.00
32083;BME280;18597;48.328;7.932;2023-09-12T01:13:03;99053.53;;;18.27;100.00
32083;BME280;18597;48.328;7.932;2023-09-12T01:15:29;99054.75;;;18.24;100.00
32083;BME280;18597;48.328;7.932;2023-09-12T01:17:56;99050.81;;;18.27;100.00
32083;BME280;18597;48.328;7.932;2023-09-12T01:20:27;99049.69;;;18.43;100.00
32083;BME280;18597;48.328;7.932;2023-09-12T01:26:30;99050.78;;;18.48;100.00
32083;BME280;18597;48.328;7.932;2023-09-12T01:29:06;99052.81;;;18.40;100.00
32083;BME280;18597;48.328;7.932;2023-09-12T01:31:34;99050.09;;;18.40;100.00
32083;BME280;18597;48.328;7.932;2023-09-12T01:34:10;99047.34;;;18.33;100.00
32083;BME280;18597;48.328;7.932;2023-09-12T01:36:36;99047.81;;;18.37;100.00
32083;BME280;18597;48.328;7.932;2023-09-12T01:39:02;99049.34;;;18.24;100.00
32083;BME280;18597;48.328;7.932;2023-09-12T01:41:30;99046.38;;;18.19;100.00
32083;BME280;18597;48.328;7.932;2023-09-12T01:58:58;99045.19;;;18.50;100.00
32083;BME280;18597;48.328;7.932;2023-09-12T02:01:24;99058.28;;;18.46;100.00
32083;BME280;18597;48.328;7.932;2023-09-12T02:03:52;99060.03;;;18.33;100.00
32083;BME280;18597;48.328;7.932;2023-09-12T02:06:18;99060.50;;;18.15;100.00
32083;BME280;18597;48.328;7.932;2023-09-12T02:08:44;99059.47;;;18.16;100.00
32083;BME280;18597;48.328;7.932;2023-09-12T02:11:09;99056.13;;;18.14;100.00
32083;BME280;18597;48.328;7.932;2023-09-12T02:13:35;99054.19;;;18.08;100.00
32083;BME280;18597;48.328;7.932;2023-09-12T02:16:01;99053.09;;;18.02;100.00
32083;BME280;18597;48.328;7.932;2023-09-12T02:18:28;99059.47;;;17.94;100.00
32083;BME280;18597;48.328;7.932;2023-09-12T02:20:54;99047.13;;;18.07;100.00
32083;BME280;18597;48.328;7.932;2023-09-12T02:23:20;99046.66;;;18.03;100.00
32083;BME280;18597;48.328;7.932;2023-09-12T02:25:46;99052.81;;;17.97;100.00
32083;BME280;18597;48.328;7.932;2023-09-12T02:28:11;99054.41;;;18.06;100.00
32083;BME280;18597;48.328;7.932;2023-09-12T02:30:39;99055.41;;;17.84;100.00
32083;BME280;18597;48.328;7.932;2023-09-12T02:33:06;99059.59;;;17.86;100.00
32083;BME280;18597;48.328;7.932;2023-09-12T02:35:32;99060.63;;;17.85;100.00
32083;BME280;18597;48.328;7.932;2023-09-12T02:37:58;99059.53;;;17.65;100.00
32083;BME280;18597;48.328;7.932;2023-09-12T02:40:24;99061.19;;;17.66;100.00
32083;BME280;18597;48.328;7.932;2023-09-12T02:42:51;99055.34;;;17.62;100.00
32083;BME280;18597;48.328;7.932;2023-09-12T02:45:17;99055.78;;;17.81;100.00
32083;BME280;18597;48.328;7.932;2023-09-12T02:47:43;99052.13;;;17.88;100.00
32083;BME280;18597;48.328;7.932;2023-09-12T02:50:10;99060.22;;;17.88;100.00
32083;BME280;18597;48.328;7.932;2023-09-12T02:52:36;99063.41;;;17.92;100.00
32083;BME280;18597;48.328;7.932;2023-09-12T02:55:02;99053.16;;;17.87;100.00
32083;BME280;18597;48.328;7.932;2023-09-12T02:57:28;99065.41;;;17.68;100.00
32083;BME280;18597;48.328;7.932;2023-09-12T02:59:54;99080.69;;;17.61;100.00
32083;BME280;18597;48.328;7.932;2023-09-12T03:02:19;99073.16;;;17.57;100.00
32083;BME280;18597;48.328;7.932;2023-09-12T03:04:45;99071.47;;;17.56;100.00
32083;BME280;18597;48.328;7.932;2023-09-12T03:07:11;99067.84;;;17.48;100.00
32083;BME280;18597;48.328;7.932;2023-09-12T03:09:37;99067.94;;;17.55;100.00
32083;BME280;18597;48.328;7.932;2023-09-12T03:12:04;99050.00;;;17.84;100.00
32083;BME280;18597;48.328;7.932;2023-09-12T03:14:30;99057.66;;;17.80;100.00
32083;BME280;18597;48.328;7.932;2023-09-12T03:16:56;99056.94;;;17.71;100.00
32083;BME280;18597;48.328;7.932;2023-09-12T03:19:22;99047.88;;;18.00;100.00
32083;BME280;18597;48.328;7.932;2023-09-12T03:21:48;99051.09;;;18.11;100.00
32083;BME280;18597;48.328;7.932;2023-09-12T03:24:14;99043.69;;;17.98;100.00
32083;BME280;18597;48.328;7.932;2023-09-12T03:26:39;99043.69;;;17.77;100.00
32083;BME280;18597;48.328;7.932;2023-09-12T03:29:05;99046.28;;;17.70;100.00
32083;BME280;18597;48.328;7.932;2023-09-12T03:31:31;99044.25;;;17.72;100.00
32083;BME280;18597;48.328;7.932;2023-09-12T03:33:57;99047.22;;;17.98;100.00
32083;BME280;18597;48.328;7.932;2023-09-12T03:36:23;99035.53;;;17.91;100.00
32083;BME280;18597;48.328;7.932;2023-09-12T03:38:49;99050.72;;;17.92;100.00
32083;BME280;18597;48.328;7.932;2023-09-12T03:41:15;99031.97;;;17.91;100.00
32083;BME280;18597;48.328;7.932;2023-09-12T03:43:41;99037.72;;;18.02;100.00
32083;BME280;18597;48.328;7.932;2023-09-12T03:46:06;99038.34;;;18.05;100.00
32083;BME280;18597;48.328;7.932;2023-09-12T03:48:33;99031.00;;;17.98;100.00
32083;BME280;18597;48.328;7.932;2023-09-12T03:51:01;99035.63;;;17.83;100.00
32083;BME280;18597;48.328;7.932;2023-09-12T03:53:29;99034.19;;;17.66;100.00
32083;BME280;18597;48.328;7.932;2023-09-12T03:55:55;99028.69;;;17.74;100.00
32083;BME280;18597;48.328;7.932;2023-09-12T03:58:21;99031.69;;;17.64;100.00
32083;BME280;18597;48.328;7.932;2023-09-12T04:00:47;99036.38;;;17.56;100.00
32083;BME280;18597;48.328;7.932;2023-09-12T04:03:13;99030.81;;;17.42;100.00
32083;BME280;18597;48.328;7.932;2023-09-12T04:05:38;99031.31;;;17.53;100.00
32083;BME280;18597;48.328;7.932;2023-09-12T04:08:04;99032.47;;;17.43;100.00
32083;BME280;18597;48.328;7.932;2023-09-12T04:10:30;99035.56;;;17.40;100.00
32083;BME280;18597;48.328;7.932;2023-09-12T04:12:58;99036.41;;;17.41;100.00
32083;BME280;18597;48.328;7.932;2023-09-12T04:15:23;99036.47;;;17.47;100.00
32083;BME280;18597;48.328;7.932;2023-09-12T04:17:49;99038.31;;;17.62;100.00
32083;BME280;18597;48.328;7.932;2023-09-12T04:20:15;99042.47;;;17.64;100.00
32083;BME280;18597;48.328;7.932;2023-09-12T04:22:42;99043.44;;;17.57;100.00
32083;BME280;18597;48.328;7.932;2023-09-12T04:25:08;99044.69;;;17.39;100.00
32083;BME280;18597;48.328;7.932;2023-09-12T04:27:34;99043.03;;;17.38;100.00
32083;BME280;18597;48.328;7.932;2023-09-12T04:30:00;99042.72;;;17.48;100.00
32083;BME280;18597;48.328;7.932;2023-09-12T04:32:26;99042.75;;;17.33;100.00
32083;BME280;18597;48.328;7.932;2023-09-12T04:34:51;99049.00;;;17.19;100.00
32083;BME280;18597;48.328;7.932;2023-09-12T04:37:17;99055.88;;;17.22;100.00
32083;BME280;18597;48.328;7.932;2023-09-12T04:39:45;99059.88;;;17.11;100.00
32083;BME280;18597;48.328;7.932;2023-09-12T04:42:11;99057.19;;;17.11;100.00
32083;BME280;18597;48.328;7.932;2023-09-12T04:44:39;99059.16;;;17.02;100.00
32083;BME280;18597;48.328;7.932;2023-09-12T04:47:05;99061.75;;;16.96;100.00
32083;BME280;18597;48.328;7.932;2023-09-12T04:49:31;99062.78;;;16.95;100.00
32083;BME280;18597;48.328;7.932;2023-09-12T04:51:57;99059.16;;;17.02;100.00
32083;BME280;18597;48.328;7.932;2023-09-12T04:54:22;99063.88;;;17.00;100.00
32083;BME280;18597;48.328;7.932;2023-09-12T04:56:48;99062.59;;;16.96;100.00
32083;BME280;18597;48.328;7.932;2023-09-12T04:59:14;99072.91;;;17.07;100.00
32083;BME280;18597;48.328;7.932;2023-09-12T05:01:40;99067.50;;;17.07;100.00
32083;BME280;18597;48.328;7.932;2023-09-12T05:04:06;99076.38;;;17.16;100.00
32083;BME280;18597;48.328;7.932;2023-09-12T05:06:32;99072.25;;;17.20;100.00
32083;BME280;18597;48.328;7.932;2023-09-12T05:08:57;99080.56;;;17.04;100.00
32083;BME280;18597;48.328;7.932;2023-09-12T05:11:24;99078.41;;;17.14;100.00
32083;BME280;18597;48.328;7.932;2023-09-12T05:13:50;99082.31;;;17.26;100.00
32083;BME280;18597;48.328;7.932;2023-09-12T05:16:16;99081.09;;;17.29;100.00
32083;BME280;18597;48.328;7.932;2023-09-12T05:18:42;99081.47;;;17.40;100.00
32083;BME280;18597;48.328;7.932;2023-09-12T05:21:08;99072.03;;;17.51;100.00
32083;BME280;18597;48.328;7.932;2023-09-12T05:23:34;99077.78;;;17.63;100.00
32083;BME280;18597;48.328;7.932;2023-09-12T05:25:59;99086.66;;;17.71;100.00
32083;BME280;18597;48.328;7.932;2023-09-12T05:28:25;99081.25;;;17.71;100.00
32083;BME280;18597;48.328;7.932;2023-09-12T05:30:52;99086.81;;;17.70;100.00
32083;BME280;18597;48.328;7.932;2023-09-12T05:33:18;99091.50;;;17.76;100.00
32083;BME280;18597;48.328;7.932;2023-09-12T05:35:44;99094.84;;;17.78;100.00
32083;BME280;18597;48.328;7.932;2023-09-12T05:38:11;99106.13;;;18.03;100.00
32083;BME280;18597;48.328;7.932;2023-09-12T05:40:36;99096.78;;;18.06;100.00
32083;BME280;18597;48.328;7.932;2023-09-12T05:43:02;99089.97;;;18.10;100.00
32083;BME280;18597;48.328;7.932;2023-09-12T05:45:28;99098.78;;;18.18;100.00
32083;BME280;18597;48.328;7.932;2023-09-12T05:47:58;99088.81;;;18.40;100.00
32083;BME280;18597;48.328;7.932;2023-09-12T05:50:24;99095.16;;;18.54;100.00
32083;BME280;18597;48.328;7.932;2023-09-12T05:52:50;99101.00;;;18.57;100.00
32083;BME280;18597;48.328;7.932;2023-09-12T05:55:17;99105.00;;;18.62;100.00
32083;BME280;18597;48.328;7.932;2023-09-12T05:57:43;99115.16;;;18.74;100.00
32083;BME280;18597;48.328;7.932;2023-09-12T06:00:10;99117.44;;;19.05;100.00
32083;BME280;18597;48.328;7.932;2023-09-12T06:02:39;99126.13;;;19.29;100.00
32083;BME280;18597;48.328;7.932;2023-09-12T06:05:05;99118.19;;;19.62;100.00
32083;BME280;18597;48.328;7.932;2023-09-12T06:07:32;99112.13;;;21.20;100.00
32083;BME280;18597;48.328;7.932;2023-09-12T06:09:58;99112.59;;;22.20;100.00
32083;BME280;18597;48.328;7.932;2023-09-12T06:12:24;99114.88;;;22.80;99.28
32083;BME280;18597;48.328;7.932;2023-09-12T06:14:51;99116.41;;;23.62;90.64
32083;BME280;18597;48.328;7.932;2023-09-12T06:17:16;99106.22;;;24.36;81.69
32083;BME280;18597;48.328;7.932;2023-09-12T06:19:42;99108.78;;;24.84;76.65
32083;BME280;18597;48.328;7.932;2023-09-12T06:22:08;99110.00;;;25.24;72.44
32083;BME280;18597;48.328;7.932;2023-09-12T06:24:34;99106.38;;;23.93;83.62
32083;BME280;18597;48.328;7.932;2023-09-12T06:26:59;99105.63;;;24.16;83.16
32083;BME280;18597;48.328;7.932;2023-09-12T06:29:25;99108.88;;;23.94;82.49
32083;BME280;18597;48.328;7.932;2023-09-12T06:31:51;99104.00;;;24.56;77.94
32083;BME280;18597;48.328;7.932;2023-09-12T06:34:17;99100.00;;;24.82;75.88
32083;BME280;18597;48.328;7.932;2023-09-12T06:36:42;99099.50;;;25.96;66.12
32083;BME280;18597;48.328;7.932;2023-09-12T06:39:10;99099.00;;;26.73;60.36
32083;BME280;18597;48.328;7.932;2023-09-12T06:41:36;99098.34;;;27.16;57.15
32083;BME280;18597;48.328;7.932;2023-09-12T06:44:02;99096.50;;;27.65;54.78
32083;BME280;18597;48.328;7.932;2023-09-12T06:46:29;99096.47;;;28.90;49.49
32083;BME280;18597;48.328;7.932;2023-09-12T06:53:51;99091.03;;;30.05;nan
32083;BME280;18597;48.328;7.932;2023-09-12T06:56:17;99086.34;;;29.43;nan
32083;BME280;18597;48.328;7.932;2023-09-12T06:58:43;99095.88;;;29.20;nan
32083;BME280;18597;48.328;7.932;2023-09-12T07:01:09;99098.66;;;27.80;nan
32083;BME280;18597;48.328;7.932;2023-09-12T07:03:36;99103.28;;;28.02;nan
32083;BME280;18597;48.328;7.932;2023-09-12T07:06:02;99106.03;;;27.36;nan
32083;BME280;18597;48.328;7.932;2023-09-12T07:08:31;99096.22;;;28.33;nan
32083;BME280;18597;48.328;7.932;2023-09-12T07:13:25;99099.25;;;31.84;nan
32083;BME280;18597;48.328;7.932;2023-09-12T07:15:51;99096.84;;;32.16;nan
32083;BME280;18597;48.328;7.932;2023-09-12T07:18:17;99095.09;;;31.81;nan
32083;BME280;18597;48.328;7.932;2023-09-12T07:20:58;99089.78;;;30.84;nan
32083;BME280;18597;48.328;7.932;2023-09-12T07:23:24;99084.81;;;30.86;nan
32083;BME280;18597;48.328;7.932;2023-09-12T07:25:50;99088.13;;;31.94;nan
32083;BME280;18597;48.328;7.932;2023-09-12T07:28:16;99072.66;;;32.76;nan
32083;BME280;18597;48.328;7.932;2023-09-12T07:30:42;99084.13;;;34.70;nan
32083;BME280;18597;48.328;7.932;2023-09-12T07:33:10;99072.47;;;35.61;nan
32083;BME280;18597;48.328;7.932;2023-09-12T07:35:36;99081.38;;;36.35;nan
32083;BME280;18597;48.328;7.932;2023-09-12T07:38:02;99074.97;;;37.55;nan
32083;BME280;18597;48.328;7.932;2023-09-12T07:40:28;99075.00;;;38.55;nan
32083;BME280;18597;48.328;7.932;2023-09-12T07:42:55;99076.47;;;39.34;nan
32083;BME280;18597;48.328;7.932;2023-09-12T07:45:21;99088.44;;;39.44;nan
32083;BME280;18597;48.328;7.932;2023-09-12T07:47:47;99076.75;;;40.09;nan
32083;BME280;18597;48.328;7.932;2023-09-12T07:50:13;99073.03;;;39.67;nan
32083;BME280;18597;48.328;7.932;2023-09-12T07:52:39;99078.75;;;39.79;nan
32083;BME280;18597;48.328;7.932;2023-09-12T07:55:06;99082.34;;;40.09;nan
32083;BME280;18597;48.328;7.932;2023-09-12T07:57:33;99085.47;;;40.70;nan
32083;BME280;18597;48.328;7.932;2023-09-12T08:00:00;99084.13;;;40.14;nan
32083;BME280;18597;48.328;7.932;2023-09-12T08:02:26;99080.19;;;39.85;nan
32083;BME280;18597;48.328;7.932;2023-09-12T08:04:52;99080.34;;;38.00;nan
32083;BME280;18597;48.328;7.932;2023-09-12T08:07:20;99075.34;;;35.83;nan
32083;BME280;18597;48.328;7.932;2023-09-12T08:09:57;99073.28;;;33.74;nan
32083;BME280;18597;48.328;7.932;2023-09-12T08:12:25;99069.41;;;32.30;nan
32083;BME280;18597;48.328;7.932;2023-09-12T08:14:52;99061.03;;;31.16;nan
32083;BME280;18597;48.328;7.932;2023-09-12T08:17:18;99079.53;;;30.19;nan
32083;BME280;18597;48.328;7.932;2023-09-12T08:19:45;99082.19;;;29.36;nan
32083;BME280;18597;48.328;7.932;2023-09-12T08:22:12;99081.06;;;28.89;nan
32083;BME280;18597;48.328;7.932;2023-09-12T08:24:38;99086.94;;;28.71;nan
32083;BME280;18597;48.328;7.932;2023-09-12T08:27:06;99085.38;;;28.80;nan
32083;BME280;18597;48.328;7.932;2023-09-12T08:29:33;99096.28;;;28.70;nan
32083;BME280;18597;48.328;7.932;2023-09-12T08:32:00;99090.63;;;28.87;nan
32083;BME280;18597;48.328;7.932;2023-09-12T08:34:26;99091.63;;;29.02;nan
32083;BME280;18597;48.328;7.932;2023-09-12T08:36:52;99084.44;;;29.01;nan
32083;BME280;18597;48.328;7.932;2023-09-12T08:39:24;99097.19;;;29.13;nan
32083;BME280;18597;48.328;7.932;2023-09-12T08:41:52;99091.78;;;29.28;nan
32083;BME280;18597;48.328;7.932;2023-09-12T08:44:20;99094.63;;;29.01;nan
32083;BME280;18597;48.328;7.932;2023-09-12T08:46:47;99094.97;;;28.78;nan
32083;BME280;18597;48.328;7.932;2023-09-12T08:49:13;99086.47;;;28.47;nan
32083;BME280;18597;48.328;7.932;2023-09-12T08:51:40;99098.16;;;28.10;nan
32083;BME280;18597;48.328;7.932;2023-09-12T08:54:07;99099.41;;;27.98;nan
32083;BME280;18597;48.328;7.932;2023-09-12T08:56:36;99090.19;;;27.82;nan
32083;BME280;18597;48.328;7.932;2023-09-12T08:59:04;99095.53;;;27.72;nan
32083;BME280;18597;48.328;7.932;2023-09-12T09:01:31;99099.88;;;27.68;nan
32083;BME280;18597;48.328;7.932;2023-09-12T09:03:58;99093.56;;;27.67;nan
32083;BME280;18597;48.328;7.932;2023-09-12T09:06:25;99093.38;;;27.74;nan
32083;BME280;18597;48.328;7.932;2023-09-12T09:08:52;99096.88;;;27.69;nan
32083;BME280;18597;48.328;7.932;2023-09-12T09:11:18;99092.94;;;27.82;nan
32083;BME280;18597;48.328;7.932;2023-09-12T09:13:44;99095.34;;;27.78;nan
32083;BME280;18597;48.328;7.932;2023-09-12T09:16:16;99085.56;;;27.87;nan
32083;BME280;18597;48.328;7.932;2023-09-12T09:19:01;99086.88;;;28.07;nan
32083;BME280;18597;48.328;7.932;2023-09-12T09:21:30;99078.53;;;28.24;nan
32083;BME280;18597;48.328;7.932;2023-09-12T09:24:00;99070.78;;;28.42;nan
32083;BME280;18597;48.328;7.932;2023-09-12T09:26:42;99069.16;;;28.46;nan
32083;BME280;18597;48.328;7.932;2023-09-12T09:29:12;99070.69;;;28.64;nan
32083;BME280;18597;48.328;7.932;2023-09-12T09:31:42;99062.25;;;28.76;nan
32083;BME280;18597;48.328;7.932;2023-09-12T09:34:17;99070.31;;;28.88;nan
32083;BME280;18597;48.328;7.932;2023-09-12T09:36:49;99068.81;;;29.02;nan
32083;BME280;18597;48.328;7.932;2023-09-12T09:39:18;99061.47;;;29.23;nan
32083;BME280;18597;48.328;7.932;2023-09-12T09:41:53;99060.72;;;29.33;nan
32083;BME280;18597;48.328;7.932;2023-09-12T09:44:23;99059.94;;;29.42;nan
32083;BME280;18597;48.328;7.932;2023-09-12T09:46:59;99062.50;;;29.54;nan
32083;BME280;18597;48.328;7.932;2023-09-12T09:49:30;99060.00;;;29.52;nan
32083;BME280;18597;48.328;7.932;2023-09-12T09:51:57;99052.25;;;29.44;nan
32083;BME280;18597;48.328;7.932;2023-09-12T09:54:25;99054.72;;;29.46;nan
32083;BME280;18597;48.328;7.932;2023-09-12T09:56:58;99047.88;;;29.48;nan
32083;BME280;18597;48.328;7.932;2023-09-12T09:59:26;99045.19;;;29.59;nan
32083;BME280;18597;48.328;7.932;2023-09-12T10:01:59;99055.13;;;29.65;nan
32083;BME280;18597;48.328;7.932;2023-09-12T10:04:28;99050.47;;;29.75;nan
32083;BME280;18597;48.328;7.932;2023-09-12T10:06:57;99040.34;;;30.01;nan
32083;BME280;18597;48.328;7.932;2023-09-12T10:09:26;99036.28;;;30.24;nan
32083;BME280;18597;48.328;7.932;2023-09-12T10:11:52;99031.03;;;30.43;nan
32083;BME280;18597;48.328;7.932;2023-09-12T10:14:20;99038.22;;;30.64;nan
32083;BME280;18597;48.328;7.932;2023-09-12T10:16:49;99034.09;;;30.67;nan
32083;BME280;18597;48.328;7.932;2023-09-12T10:19:24;99035.47;;;30.70;nan
32083;BME280;18597;48.328;7.932;2023-09-12T10:24:42;99032.41;;;30.91;34.64
32083;BME280;18597;48.328;7.932;2023-09-12T10:27:09;99024.97;;;30.82;35.40
32083;BME280;18597;48.328;7.932;2023-09-12T10:29:37;99031.81;;;31.05;33.07
32083;BME280;18597;48.328;7.932;2023-09-12T10:32:03;99035.09;;;31.17;32.86
32083;BME280;18597;48.328;7.932;2023-09-12T10:34:32;99030.97;;;31.30;32.93
32083;BME280;18597;48.328;7.932;2023-09-12T10:36:59;99024.06;;;31.27;33.14
32083;BME280;18597;48.328;7.932;2023-09-12T10:39:27;99023.78;;;31.18;32.85
32083;BME280;18597;48.328;7.932;2023-09-12T10:41:54;99004.78;;;31.22;32.29
32083;BME280;18597;48.328;7.932;2023-09-12T10:44:21;99009.97;;;31.18;31.88
32083;BME280;18597;48.328;7.932;2023-09-12T10:46:47;99011.06;;;31.38;31.92
32083;BME280;18597;48.328;7.932;2023-09-12T10:49:15;99014.59;;;31.48;31.97
32083;BME280;18597;48.328;7.932;2023-09-12T10:51:44;99010.34;;;31.71;31.19
32083;BME280;18597;48.328;7.932;2023-09-12T10:54:16;99006.75;;;31.71;31.00
32083;BME280;18597;48.328;7.932;2023-09-12T10:56:42;98999.81;;;31.73;30.39
32083;BME280;18597;48.328;7.932;2023-09-12T10:59:10;98998.47;;;31.71;31.29
32083;BME280;18597;48.328;7.932;2023-09-12T11:01:40;98996.22;;;31.73;30.72
32083;BME280;18597;48.328;7.932;2023-09-12T11:04:30;98996.78;;;31.75;30.40
32083;BME280;18597;48.328;7.932;2023-09-12T11:06:57;98990.97;;;31.76;31.54
32083;BME280;18597;48.328;7.932;2023-09-12T11:09:24;98991.47;;;31.89;31.19
32083;BME280;18597;48.328;7.932;2023-09-12T11:12:05;98986.44;;;31.96;30.14
32083;BME280;18597;48.328;7.932;2023-09-12T11:15:07;99000.81;;;31.98;30.26
32083;BME280;18597;48.328;7.932;2023-09-12T11:17:43;98992.44;;;32.08;30.50
32083;BME280;18597;48.328;7.932;2023-09-12T11:20:11;98989.59;;;32.18;30.60
32083;BME280;18597;48.328;7.932;2023-09-12T11:22:41;98979.38;;;32.19;30.39
32083;BME280;18597;48.328;7.932;2023-09-12T11:25:25;98985.16;;;32.22;28.42
32083;BME280;18597;48.328;7.932;2023-09-12T11:30:32;98996.25;;;32.17;29.80
32083;BME280;18597;48.328;7.932;2023-09-12T11:33:03;98975.78;;;32.18;30.37
32083;BME280;18597;48.328;7.932;2023-09-12T11:35:30;98977.38;;;32.29;29.80
32083;BME280;18597;48.328;7.932;2023-09-12T11:38:01;98981.81;;;32.25;27.71
32083;BME280;18597;48.328;7.932;2023-09-12T11:43:25;98991.53;;;32.18;27.80
32083;BME280;18597;48.328;7.932;2023-09-12T11:45:52;98984.03;;;32.23;28.64
32083;BME280;18597;48.328;7.932;2023-09-12T11:48:19;98976.53;;;32.29;27.64
32083;BME280;18597;48.328;7.932;2023-09-12T11:50:54;98985.25;;;32.12;26.61
32083;BME280;18597;48.328;7.932;2023-09-12T11:53:24;98981.09;;;32.10;28.22
32083;BME280;18597;48.328;7.932;2023-09-12T11:55:56;98986.94;;;32.08;28.88
32083;BME280;18597;48.328;7.932;2023-09-12T11:58:25;98984.63;;;32.20;29.46
32083;BME280;18597;48.328;7.932;2023-09-12T12:00:55;98985.75;;;32.53;28.65
32083;BME280;18597;48.328;7.932;2023-09-12T12:03:24;98986.03;;;32.81;28.57
32083;BME280;18597;48.328;7.932;2023-09-12T12:05:50;98984.53;;;32.94;29.10
32083;BME280;18597;48.328;7.932;2023-09-12T12:08:17;98979.88;;;33.13;28.93
32083;BME280;18597;48.328;7.932;2023-09-12T12:10:49;98985.94;;;33.39;27.07
32083;BME280;18597;48.328;7.932;2023-09-12T12:13:19;98982.03;;;33.64;27.84
32083;BME280;18597;48.328;7.932;2023-09-12T12:15:45;98980.81;;;33.70;27.79
32083;BME280;18597;48.328;7.932;2023-09-12T12:18:11;98976.03;;;33.76;26.96
32083;BME280;18597;48.328;7.932;2023-09-12T12:20:37;98973.78;;;33.78;26.36
32083;BME280;18597;48.328;7.932;2023-09-12T12:23:03;98971.41;;;33.90;26.38
32083;BME280;18597;48.328;7.932;2023-09-12T12:25:34;98967.06;;;33.65;27.67
32083;BME280;18597;48.328;7.932;2023-09-12T12:28:02;98962.34;;;33.65;28.10
32083;BME280;18597;48.328;7.932;2023-09-12T12:30:32;98965.78;;;33.76;27.61
32083;BME280;18597;48.328;7.932;2023-09-12T12:33:05;98962.69;;;33.78;28.22
32083;BME280;18597;48.328;7.932;2023-09-12T12:35:31;98958.91;;;33.74;27.25
32083;BME280;18597;48.328;7.932;2023-09-12T12:37:57;98959.72;;;33.74;26.34
32083;BME280;18597;48.328;7.932;2023-09-12T12:40:23;98953.72;;;33.67;27.04
32083;BME280;18597;48.328;7.932;2023-09-12T12:42:50;98963.59;;;33.73;27.23
32083;BME280;18597;48.328;7.932;2023-09-12T12:45:21;98954.84;;;33.85;27.08
32083;BME280;18597;48.328;7.932;2023-09-12T12:47:56;98950.72;;;33.82;26.43
32083;BME280;18597;48.328;7.932;2023-09-12T12:50:22;98955.00;;;33.75;27.64
32083;BME280;18597;48.328;7.932;2023-09-12T12:52:49;98955.38;;;33.49;27.76
32083;BME280;18597;48.328;7.932;2023-09-12T12:55:15;98951.91;;;33.38;27.20
32083;BME280;18597;48.328;7.932;2023-09-12T12:57:43;98952.44;;;33.41;28.48
32083;BME280;18597;48.328;7.932;2023-09-12T13:00:12;98942.72;;;33.43;27.28
32083;BME280;18597;48.328;7.932;2023-09-12T13:02:41;98943.19;;;33.26;27.62
32083;BME280;18597;48.328;7.932;2023-09-12T13:05:26;98941.16;;;33.32;29.01
32083;BME280;18597;48.328;7.932;2023-09-12T13:07:53;98920.69;;;33.09;29.14
32083;BME280;18597;48.328;7.932;2023-09-12T13:10:21;98923.91;;;32.97;29.59
32083;BME280;18597;48.328;7.932;2023-09-12T13:12:48;98919.41;;;33.01;28.89
32083;BME280;18597;48.328;7.932;2023-09-12T13:15:15;98908.22;;;33.11;29.30
32083;BME280;18597;48.328;7.932;2023-09-12T13:17:43;98906.66;;;33.24;30.56
32083;BME280;18597;48.328;7.932;2023-09-12T13:20:09;98898.66;;;33.23;31.02
32083;BME280;18597;48.328;7.932;2023-09-12T13:22:36;98891.84;;;33.15;29.09
32083;BME280;18597;48.328;7.932;2023-09-12T13:25:03;98889.22;;;33.05;28.60
32083;BME280;18597;48.328;7.932;2023-09-12T13:27:29;98887.69;;;32.94;28.58
32083;BME280;18597;48.328;7.932;2023-09-12T13:29:55;98875.38;;;32.81;28.65
32083;BME280;18597;48.328;7.932;2023-09-12T13:32:20;98873.81;;;32.75;28.86
32083;BME280;18597;48.328;7.932;2023-09-12T13:34:46;98869.03;;;32.80;29.72
32083;BME280;18597;48.328;7.932;2023-09-12T13:37:12;98872.16;;;32.98;29.50